sensor_id;sensor_type;location;lat;lon;timestamp;pressure;altitude;pressure_sealevel;temperature;humidity
21547;BME280;41275;51.912;4.388;2023-05-03T00:02:06;102944.81;;;14.44;40.73
21547;BME280;41275;51.912;4.388;2023-05-03T00:07:28;102944.41;;;14.41;41.20
21547;BME280;41275;51.912;4.388;2023-05-03T00:12:49;102938.84;;;14.36;41.08
21547;BME280;41275;51.912;4.388;2023-05-03T00:18:10;102947.25;;;14.33;40.96
21547;BME280;41275;51.912;4.388;2023-05-03T00:23:31;102934.91;;;14.25;41.24
21547;BME280;41275;51.912;4.388;2023-05-03T00:28:53;102928.34;;;14.21;41.25
21547;BME280;41275;51.912;4.388;2023-05-03T00:34:14;102936.34;;;14.21;41.52
21547;BME280;41275;51.912;4.388;2023-05-03T00:39:35;102943.06;;;14.17;41.56
21547;BME280;41275;51.912;4.388;2023-05-03T00:44:56;102939.59;;;14.16;41.62
21547;BME280;41275;51.912;4.388;2023-05-03T00:50:20;102938.53;;;14.11;41.61
21547;BME280;41275;51.912;4.388;2023-05-03T00:55:43;102944.06;;;14.09;42.09
21547;BME280;41275;51.912;4.388;2023-05-03T01:01:06;102944.66;;;14.05;42.07
21547;BME280;41275;51.912;4.388;2023-05-03T01:12:22;102948.53;;;13.95;42.39
21547;BME280;41275;51.912;4.388;2023-05-03T01:17:49;102944.19;;;13.88;42.80
21547;BME280;41275;51.912;4.388;2023-05-03T01:23:26;102936.97;;;13.82;42.97
21547;BME280;41275;51.912;4.388;2023-05-03T01:28:48;102935.28;;;13.74;42.81
21547;BME280;41275;51.912;4.388;2023-05-03T01:39:43;102929.91;;;13.61;43.54
21547;BME280;41275;51.912;4.388;2023-05-03T01:45:06;102912.47;;;13.58;43.54
21547;BME280;41275;51.912;4.388;2023-05-03T01:50:27;102896.28;;;13.53;43.74
21547;BME280;41275;51.912;4.388;2023-05-03T01:55:49;102882.16;;;13.53;43.89
21547;BME280;41275;51.912;4.388;2023-05-03T02:01:10;102869.91;;;13.58;43.98
21547;BME280;41275;51.912;4.388;2023-05-03T02:06:31;102858.00;;;13.54;43.92
21547;BME280;41275;51.912;4.388;2023-05-03T02:11:53;102861.69;;;13.53;43.97
21547;BME280;41275;51.912;4.388;2023-05-03T02:17:14;102885.81;;;13.51;44.29
21547;BME280;41275;51.912;4.388;2023-05-03T02:22:37;102882.78;;;13.55;44.07
21547;BME280;41275;51.912;4.388;2023-05-03T02:27:58;102890.75;;;13.55;44.38
21547;BME280;41275;51.912;4.388;2023-05-03T02:33:19;102900.56;;;13.54;43.57
21547;BME280;41275;51.912;4.388;2023-05-03T02:38:40;102912.69;;;13.57;43.64
21547;BME280;41275;51.912;4.388;2023-05-03T02:44:02;102903.25;;;13.54;43.41
21547;BME280;41275;51.912;4.388;2023-05-03T02:49:23;102911.59;;;13.51;43.30
21547;BME280;41275;51.912;4.388;2023-05-03T02:54:44;102892.38;;;13.49;43.07
21547;BME280;41275;51.912;4.388;2023-05-03T03:00:08;102904.41;;;13.45;42.90
21547;BME280;41275;51.912;4.388;2023-05-03T03:05:31;102915.22;;;13.43;43.00
21547;BME280;41275;51.912;4.388;2023-05-03T03:10:52;102921.78;;;13.41;42.96
21547;BME280;41275;51.912;4.388;2023-05-03T03:16:14;102929.13;;;13.39;42.98
21547;BME280;41275;51.912;4.388;2023-05-03T03:21:35;102925.84;;;13.37;42.66
21547;BME280;41275;51.912;4.388;2023-05-03T03:26:57;102925.19;;;13.35;42.84
21547;BME280;41275;51.912;4.388;2023-05-03T03:32:18;102922.75;;;13.33;42.47
21547;BME280;41275;51.912;4.388;2023-05-03T03:37:39;102918.19;;;13.27;42.56
21547;BME280;41275;51.912;4.388;2023-05-03T03:43:00;102924.06;;;13.22;42.14
21547;BME280;41275;51.912;4.388;2023-05-03T03:48:21;102938.38;;;13.21;42.49
21547;BME280;41275;51.912;4.388;2023-05-03T03:53:43;102940.75;;;13.16;42.01
21547;BME280;41275;51.912;4.388;2023-05-03T03:59:04;102956.09;;;13.14;42.41
21547;BME280;41275;51.912;4.388;2023-05-03T04:04:26;102962.44;;;13.13;42.38
21547;BME280;41275;51.912;4.388;2023-05-03T04:09:47;102956.47;;;13.11;42.29
21547;BME280;41275;51.912;4.388;2023-05-03T04:15:11;102952.63;;;13.14;42.27
21547;BME280;41275;51.912;4.388;2023-05-03T04:20:33;102949.31;;;13.12;42.24
21547;BME280;41275;51.912;4.388;2023-05-03T04:25:54;102948.94;;;13.15;42.14
21547;BME280;41275;51.912;4.388;2023-05-03T04:31:17;102943.03;;;13.19;41.99
21547;BME280;41275;51.912;4.388;2023-05-03T04:36:41;102931.97;;;13.16;41.99
21547;BME280;41275;51.912;4.388;2023-05-03T04:42:02;102935.28;;;13.18;42.18
21547;BME280;41275;51.912;4.388;2023-05-03T04:47:23;102931.78;;;13.17;41.82
21547;BME280;41275;51.912;4.388;2023-05-03T04:52:45;102937.16;;;13.24;41.96
21547;BME280;41275;51.912;4.388;2023-05-03T04:58:07;102938.25;;;13.30;41.70
21547;BME280;41275;51.912;4.388;2023-05-03T05:03:29;102940.78;;;13.38;41.69
21547;BME280;41275;51.912;4.388;2023-05-03T05:08:51;102949.44;;;13.46;41.63
21547;BME280;41275;51.912;4.388;2023-05-03T05:14:12;102956.22;;;13.56;41.42
21547;BME280;41275;51.912;4.388;2023-05-03T05:19:34;102942.16;;;13.62;41.20
21547;BME280;41275;51.912;4.388;2023-05-03T05:24:55;102962.91;;;13.73;40.88
21547;BME280;41275;51.912;4.388;2023-05-03T05:30:17;102958.03;;;13.83;40.81
21547;BME280;41275;51.912;4.388;2023-05-03T05:35:38;102971.84;;;13.93;40.46
21547;BME280;41275;51.912;4.388;2023-05-03T05:40:59;102969.06;;;14.08;40.25
21547;BME280;41275;51.912;4.388;2023-05-03T05:46:20;102969.09;;;14.21;40.00
21547;BME280;41275;51.912;4.388;2023-05-03T05:51:42;102979.03;;;14.41;39.74
21547;BME280;41275;51.912;4.388;2023-05-03T05:57:03;102965.19;;;14.59;39.38
21547;BME280;41275;51.912;4.388;2023-05-03T06:02:24;102969.94;;;14.70;38.86
21547;BME280;41275;51.912;4.388;2023-05-03T06:07:47;102962.56;;;14.85;38.24
21547;BME280;41275;51.912;4.388;2023-05-03T06:13:08;102956.03;;;14.94;37.98
21547;BME280;41275;51.912;4.388;2023-05-03T06:18:30;102960.56;;;14.94;37.62
21547;BME280;41275;51.912;4.388;2023-05-03T06:23:51;102973.06;;;15.20;37.37
21547;BME280;41275;51.912;4.388;2023-05-03T06:29:12;102966.31;;;15.37;36.91
21547;BME280;41275;51.912;4.388;2023-05-03T06:34:33;102962.41;;;15.40;36.55
21547;BME280;41275;51.912;4.388;2023-05-03T06:39:54;102945.56;;;15.53;36.31
21547;BME280;41275;51.912;4.388;2023-05-03T06:45:16;102943.72;;;15.66;36.06
21547;BME280;41275;51.912;4.388;2023-05-03T06:50:38;102949.88;;;15.80;35.95
21547;BME280;41275;51.912;4.388;2023-05-03T06:55:59;102942.03;;;15.85;35.36
21547;BME280;41275;51.912;4.388;2023-05-03T07:01:21;102929.91;;;15.96;34.94
21547;BME280;41275;51.912;4.388;2023-05-03T07:06:43;102925.97;;;15.99;35.28
21547;BME280;41275;51.912;4.388;2023-05-03T07:12:04;102923.91;;;16.07;34.82
21547;BME280;41275;51.912;4.388;2023-05-03T07:17:25;102915.56;;;16.29;34.62
21547;BME280;41275;51.912;4.388;2023-05-03T07:22:46;102913.59;;;16.49;34.61
21547;BME280;41275;51.912;4.388;2023-05-03T07:28:08;102900.88;;;16.44;34.18
21547;BME280;41275;51.912;4.388;2023-05-03T07:33:29;102907.56;;;16.60;34.00
21547;BME280;41275;51.912;4.388;2023-05-03T07:38:51;102885.91;;;16.75;34.53
21547;BME280;41275;51.912;4.388;2023-05-03T07:44:12;102894.47;;;16.84;34.57
21547;BME280;41275;51.912;4.388;2023-05-03T07:49:36;102897.91;;;16.91;34.64
21547;BME280;41275;51.912;4.388;2023-05-03T07:54:57;102912.56;;;17.13;34.42
21547;BME280;41275;51.912;4.388;2023-05-03T08:00:19;102910.91;;;17.37;34.42
21547;BME280;41275;51.912;4.388;2023-05-03T08:05:40;102911.13;;;17.54;33.47
21547;BME280;41275;51.912;4.388;2023-05-03T08:11:02;102899.88;;;17.64;33.02
21547;BME280;41275;51.912;4.388;2023-05-03T08:16:23;102888.84;;;17.79;33.65
21547;BME280;41275;51.912;4.388;2023-05-03T08:21:44;102893.88;;;17.87;33.37
21547;BME280;41275;51.912;4.388;2023-05-03T08:27:07;102899.47;;;18.04;32.67
21547;BME280;41275;51.912;4.388;2023-05-03T08:32:30;102908.13;;;18.18;32.47
21547;BME280;41275;51.912;4.388;2023-05-03T08:37:51;102896.56;;;18.05;32.32
21547;BME280;41275;51.912;4.388;2023-05-03T08:43:14;102903.84;;;18.17;32.29
21547;BME280;41275;51.912;4.388;2023-05-03T08:48:38;102910.06;;;18.29;32.09
21547;BME280;41275;51.912;4.388;2023-05-03T08:53:59;102915.09;;;18.37;32.32
21547;BME280;41275;51.912;4.388;2023-05-03T08:59:21;102910.06;;;18.59;32.06
21547;BME280;41275;51.912;4.388;2023-05-03T09:04:43;102918.28;;;18.87;31.74
21547;BME280;41275;51.912;4.388;2023-05-03T09:10:21;102919.50;;;19.27;31.18
21547;BME280;41275;51.912;4.388;2023-05-03T09:16:02;102915.84;;;19.45;30.47
21547;BME280;41275;51.912;4.388;2023-05-03T09:21:23;102916.66;;;19.33;30.73
21547;BME280;41275;51.912;4.388;2023-05-03T09:26:46;102908.16;;;19.25;30.85
21547;BME280;41275;51.912;4.388;2023-05-03T09:32:08;102909.56;;;19.39;31.09
21547;BME280;41275;51.912;4.388;2023-05-03T09:37:36;102902.75;;;19.60;30.58
21547;BME280;41275;51.912;4.388;2023-05-03T09:43:10;102905.34;;;19.67;30.78
21547;BME280;41275;51.912;4.388;2023-05-03T09:48:31;102913.25;;;19.85;30.54
21547;BME280;41275;51.912;4.388;2023-05-03T09:53:55;102900.34;;;19.99;30.40
21547;BME280;41275;51.912;4.388;2023-05-03T09:59:16;102902.53;;;20.14;30.01
21547;BME280;41275;51.912;4.388;2023-05-03T10:04:42;102904.91;;;20.27;30.22
21547;BME280;41275;51.912;4.388;2023-05-03T10:10:04;102897.03;;;20.37;29.71
21547;BME280;41275;51.912;4.388;2023-05-03T10:15:25;102890.19;;;20.46;29.79
21547;BME280;41275;51.912;4.388;2023-05-03T10:20:55;102894.72;;;20.57;29.76
21547;BME280;41275;51.912;4.388;2023-05-03T10:26:19;102890.75;;;20.77;29.30
21547;BME280;41275;51.912;4.388;2023-05-03T10:31:44;102890.19;;;20.92;29.18
21547;BME280;41275;51.912;4.388;2023-05-03T10:37:08;102887.31;;;20.98;29.18
21547;BME280;41275;51.912;4.388;2023-05-03T10:42:30;102874.97;;;21.02;28.80
21547;BME280;41275;51.912;4.388;2023-05-03T10:53:35;102880.41;;;21.41;28.56
21547;BME280;41275;51.912;4.388;2023-05-03T10:58:56;102869.41;;;21.43;28.01
21547;BME280;41275;51.912;4.388;2023-05-03T11:04:31;102867.25;;;21.45;28.50
21547;BME280;41275;51.912;4.388;2023-05-03T11:09:53;102850.84;;;21.29;28.39
21547;BME280;41275;51.912;4.388;2023-05-03T11:15:14;102851.97;;;21.50;28.24
21547;BME280;41275;51.912;4.388;2023-05-03T11:20:36;102833.50;;;21.59;28.12
21547;BME280;41275;51.912;4.388;2023-05-03T11:25:57;102832.72;;;21.86;28.08
21547;BME280;41275;51.912;4.388;2023-05-03T11:31:20;102825.63;;;21.79;28.08
21547;BME280;41275;51.912;4.388;2023-05-03T11:36:41;102832.88;;;22.28;28.19
21547;BME280;41275;51.912;4.388;2023-05-03T11:42:03;102830.59;;;22.47;27.55
21547;BME280;41275;51.912;4.388;2023-05-03T11:47:25;102816.25;;;22.36;27.46
21547;BME280;41275;51.912;4.388;2023-05-03T11:52:46;102812.06;;;22.23;27.75
21547;BME280;41275;51.912;4.388;2023-05-03T11:58:11;102807.44;;;22.51;27.34
21547;BME280;41275;51.912;4.388;2023-05-03T12:03:33;102796.13;;;22.54;26.59
21547;BME280;41275;51.912;4.388;2023-05-03T12:08:55;102787.84;;;22.71;26.58
21547;BME280;41275;51.912;4.388;2023-05-03T12:14:17;102779.69;;;22.98;26.44
21547;BME280;41275;51.912;4.388;2023-05-03T12:19:38;102757.69;;;23.37;26.12
21547;BME280;41275;51.912;4.388;2023-05-03T12:24:59;102754.81;;;24.61;24.66
21547;BME280;41275;51.912;4.388;2023-05-03T12:30:21;102756.69;;;26.19;23.34
21547;BME280;41275;51.912;4.388;2023-05-03T12:35:42;102753.22;;;27.71;21.79
21547;BME280;41275;51.912;4.388;2023-05-03T12:41:03;102739.66;;;28.04;20.73
21547;BME280;41275;51.912;4.388;2023-05-03T12:46:24;102744.84;;;28.19;20.28
21547;BME280;41275;51.912;4.388;2023-05-03T12:51:46;102736.66;;;28.19;20.23
21547;BME280;41275;51.912;4.388;2023-05-03T12:57:07;102725.94;;;29.33;19.30
21547;BME280;41275;51.912;4.388;2023-05-03T13:02:30;102724.94;;;29.65;19.32
21547;BME280;41275;51.912;4.388;2023-05-03T13:07:51;102711.66;;;29.72;19.12
21547;BME280;41275;51.912;4.388;2023-05-03T13:13:13;102702.16;;;30.23;18.57
21547;BME280;41275;51.912;4.388;2023-05-03T13:18:34;102702.72;;;30.12;18.42
21547;BME280;41275;51.912;4.388;2023-05-03T13:24:07;102691.84;;;29.89;18.66
21547;BME280;41275;51.912;4.388;2023-05-03T13:29:28;102667.91;;;30.66;17.81
21547;BME280;41275;51.912;4.388;2023-05-03T13:34:49;102667.97;;;31.18;17.63
21547;BME280;41275;51.912;4.388;2023-05-03T13:40:11;102659.94;;;31.94;17.23
21547;BME280;41275;51.912;4.388;2023-05-03T13:45:34;102648.97;;;32.33;16.85
21547;BME280;41275;51.912;4.388;2023-05-03T13:50:55;102641.63;;;32.54;16.59
21547;BME280;41275;51.912;4.388;2023-05-03T13:56:17;102642.56;;;31.90;16.58
21547;BME280;41275;51.912;4.388;2023-05-03T14:01:38;102637.06;;;32.29;16.28
21547;BME280;41275;51.912;4.388;2023-05-03T14:07:00;102618.28;;;32.90;16.11
21547;BME280;41275;51.912;4.388;2023-05-03T14:12:23;102619.25;;;32.94;15.88
21547;BME280;41275;51.912;4.388;2023-05-03T14:17:46;102607.91;;;33.50;15.23
21547;BME280;41275;51.912;4.388;2023-05-03T14:23:07;102591.44;;;33.86;15.17
21547;BME280;41275;51.912;4.388;2023-05-03T14:28:29;102581.38;;;34.15;14.72
21547;BME280;41275;51.912;4.388;2023-05-03T14:33:50;102573.97;;;34.15;14.33
21547;BME280;41275;51.912;4.388;2023-05-03T14:39:11;102569.09;;;34.37;14.52
21547;BME280;41275;51.912;4.388;2023-05-03T14:44:36;102570.84;;;34.17;14.21
21547;BME280;41275;51.912;4.388;2023-05-03T14:49:57;102559.53;;;33.94;13.96
21547;BME280;41275;51.912;4.388;2023-05-03T14:55:19;102564.47;;;34.01;14.06
21547;BME280;41275;51.912;4.388;2023-05-03T15:00:40;102548.25;;;34.36;13.38
21547;BME280;41275;51.912;4.388;2023-05-03T15:06:01;102551.38;;;34.75;13.70
21547;BME280;41275;51.912;4.388;2023-05-03T15:11:23;102532.44;;;35.17;14.39
21547;BME280;41275;51.912;4.388;2023-05-03T15:16:44;102540.78;;;35.05;14.81
21547;BME280;41275;51.912;4.388;2023-05-03T15:22:05;102537.34;;;35.08;15.17
21547;BME280;41275;51.912;4.388;2023-05-03T15:27:26;102526.16;;;35.32;14.65
21547;BME280;41275;51.912;4.388;2023-05-03T15:32:47;102510.72;;;35.12;14.41
21547;BME280;41275;51.912;4.388;2023-05-03T15:38:11;102524.00;;;34.66;15.12
21547;BME280;41275;51.912;4.388;2023-05-03T15:43:33;102521.25;;;34.94;14.34
21547;BME280;41275;51.912;4.388;2023-05-03T15:48:54;102513.91;;;35.30;14.27
21547;BME280;41275;51.912;4.388;2023-05-03T15:54:16;102497.94;;;35.20;14.79
21547;BME280;41275;51.912;4.388;2023-05-03T15:59:37;102509.38;;;33.36;15.94
21547;BME280;41275;51.912;4.388;2023-05-03T16:04:58;102503.28;;;30.25;18.41
21547;BME280;41275;51.912;4.388;2023-05-03T16:10:20;102497.47;;;28.54;19.92
21547;BME280;41275;51.912;4.388;2023-05-03T16:15:42;102488.69;;;27.52;20.98
21547;BME280;41275;51.912;4.388;2023-05-03T16:21:03;102486.78;;;26.87;21.55
21547;BME280;41275;51.912;4.388;2023-05-03T16:26:24;102493.66;;;26.47;22.57
21547;BME280;41275;51.912;4.388;2023-05-03T16:31:46;102495.75;;;26.31;22.96
21547;BME280;41275;51.912;4.388;2023-05-03T16:37:07;102494.91;;;26.11;23.48
21547;BME280;41275;51.912;4.388;2023-05-03T16:42:29;102486.66;;;25.98;23.83
21547;BME280;41275;51.912;4.388;2023-05-03T16:47:50;102494.09;;;26.54;23.46
21547;BME280;41275;51.912;4.388;2023-05-03T16:53:11;102492.97;;;26.92;22.81
21547;BME280;41275;51.912;4.388;2023-05-03T16:58:33;102488.06;;;27.08;22.88
21547;BME280;41275;51.912;4.388;2023-05-03T17:03:54;102484.00;;;27.38;22.56
21547;BME280;41275;51.912;4.388;2023-05-03T17:09:15;102484.72;;;27.58;22.57
21547;BME280;41275;51.912;4.388;2023-05-03T17:14:36;102484.97;;;27.15;22.81
21547;BME280;41275;51.912;4.388;2023-05-03T17:19:59;102477.28;;;26.71;23.01
21547;BME280;41275;51.912;4.388;2023-05-03T17:25:22;102472.06;;;26.17;23.74
21547;BME280;41275;51.912;4.388;2023-05-03T17:30:43;102477.13;;;26.43;23.81
21547;BME280;41275;51.912;4.388;2023-05-03T17:36:05;102473.03;;;26.97;23.27
21547;BME280;41275;51.912;4.388;2023-05-03T17:41:27;102461.69;;;27.69;22.26
21547;BME280;41275;51.912;4.388;2023-05-03T17:46:49;102462.56;;;27.37;23.04
21547;BME280;41275;51.912;4.388;2023-05-03T17:52:11;102472.03;;;26.36;23.87
21547;BME280;41275;51.912;4.388;2023-05-03T17:57:33;102463.19;;;25.40;24.87
21547;BME280;41275;51.912;4.388;2023-05-03T18:02:54;102470.25;;;24.72;25.68
21547;BME280;41275;51.912;4.388;2023-05-03T18:08:16;102479.97;;;24.29;26.67
21547;BME280;41275;51.912;4.388;2023-05-03T18:13:37;102481.81;;;23.69;27.52
21547;BME280;41275;51.912;4.388;2023-05-03T18:19:00;102469.72;;;23.05;28.79
21547;BME280;41275;51.912;4.388;2023-05-03T18:24:21;102486.13;;;22.63;29.08
21547;BME280;41275;51.912;4.388;2023-05-03T18:29:42;102492.47;;;22.16;29.87
21547;BME280;41275;51.912;4.388;2023-05-03T18:35:04;102487.44;;;21.82;30.49
21547;BME280;41275;51.912;4.388;2023-05-03T18:40:26;102487.78;;;21.53;30.61
21547;BME280;41275;51.912;4.388;2023-05-03T18:45:47;102480.97;;;21.36;31.29
21547;BME280;41275;51.912;4.388;2023-05-03T18:51:08;102460.81;;;21.11;31.71
21547;BME280;41275;51.912;4.388;2023-05-03T18:56:29;102474.38;;;20.94;32.00
21547;BME280;41275;51.912;4.388;2023-05-03T19:01:51;102472.69;;;20.83;32.45
21547;BME280;41275;51.912;4.388;2023-05-03T19:07:13;102462.34;;;20.70;32.91
21547;BME280;41275;51.912;4.388;2023-05-03T19:12:34;102463.28;;;20.58;33.09
21547;BME280;41275;51.912;4.388;2023-05-03T19:17:55;102457.44;;;20.40;33.75
21547;BME280;41275;51.912;4.388;2023-05-03T19:23:16;102455.69;;;20.28;33.79
21547;BME280;41275;51.912;4.388;2023-05-03T19:28:38;102470.63;;;20.19;34.18
21547;BME280;41275;51.912;4.388;2023-05-03T19:33:59;102461.03;;;20.01;34.47
21547;BME280;41275;51.912;4.388;2023-05-03T19:39:20;102455.56;;;19.96;34.70
21547;BME280;41275;51.912;4.388;2023-05-03T19:44:41;102460.38;;;19.94;34.82
21547;BME280;41275;51.912;4.388;2023-05-03T19:50:03;102465.13;;;19.87;34.96
21547;BME280;41275;51.912;4.388;2023-05-03T19:55:24;102455.88;;;19.78;34.98
21547;BME280;41275;51.912;4.388;2023-05-03T20:00:45;102456.06;;;19.71;35.17
21547;BME280;41275;51.912;4.388;2023-05-03T20:06:06;102453.22;;;19.61;35.39
21547;BME280;41275;51.912;4.388;2023-05-03T20:11:28;102453.13;;;19.56;35.59
21547;BME280;41275;51.912;4.388;2023-05-03T20:16:49;102449.78;;;19.49;35.69
21547;BME280;41275;51.912;4.388;2023-05-03T20:22:11;102447.84;;;19.44;35.83
21547;BME280;41275;51.912;4.388;2023-05-03T20:27:32;102445.91;;;19.40;35.78
21547;BME280;41275;51.912;4.388;2023-05-03T20:32:53;102439.88;;;19.32;35.69
21547;BME280;41275;51.912;4.388;2023-05-03T20:38:14;102435.00;;;19.29;35.52
21547;BME280;41275;51.912;4.388;2023-05-03T20:43:36;102441.22;;;19.30;35.88
21547;BME280;41275;51.912;4.388;2023-05-03T20:48:57;102433.66;;;19.27;35.50
21547;BME280;41275;51.912;4.388;2023-05-03T20:54:18;102428.44;;;19.20;35.20
21547;BME280;41275;51.912;4.388;2023-05-03T20:59:39;102428.69;;;19.19;35.33
21547;BME280;41275;51.912;4.388;2023-05-03T21:05:01;102433.47;;;19.17;35.09
21547;BME280;41275;51.912;4.388;2023-05-03T21:10:22;102419.50;;;19.15;35.00
21547;BME280;41275;51.912;4.388;2023-05-03T21:15:43;102422.34;;;19.08;34.87
21547;BME280;41275;51.912;4.388;2023-05-03T21:21:04;102422.34;;;19.08;34.76
21547;BME280;41275;51.912;4.388;2023-05-03T21:26:26;102417.38;;;19.00;34.63
21547;BME280;41275;51.912;4.388;2023-05-03T21:31:47;102426.84;;;19.02;34.52
21547;BME280;41275;51.912;4.388;2023-05-03T21:37:08;102409.00;;;18.96;34.43
21547;BME280;41275;51.912;4.388;2023-05-03T21:42:29;102404.38;;;18.92;34.55
21547;BME280;41275;51.912;4.388;2023-05-03T21:47:50;102409.69;;;18.86;34.41
21547;BME280;41275;51.912;4.388;2023-05-03T21:53:12;102407.69;;;18.82;34.43
21547;BME280;41275;51.912;4.388;2023-05-03T21:58:33;102407.63;;;18.77;34.55
21547;BME280;41275;51.912;4.388;2023-05-03T22:03:54;102403.25;;;18.71;34.26
21547;BME280;41275;51.912;4.388;2023-05-03T22:09:15;102386.19;;;18.65;34.51
21547;BME280;41275;51.912;4.388;2023-05-03T22:14:37;102387.88;;;18.54;34.36
21547;BME280;41275;51.912;4.388;2023-05-03T22:19:58;102379.75;;;18.49;34.76
21547;BME280;41275;51.912;4.388;2023-05-03T22:25:23;102376.41;;;18.42;34.50
21547;BME280;41275;51.912;4.388;2023-05-03T22:30:45;102380.31;;;18.34;34.75
21547;BME280;41275;51.912;4.388;2023-05-03T22:36:07;102365.09;;;18.23;35.28
21547;BME280;41275;51.912;4.388;2023-05-03T22:41:28;102359.31;;;18.14;35.31
21547;BME280;41275;51.912;4.388;2023-05-03T22:46:49;102361.09;;;18.09;35.48
21547;BME280;41275;51.912;4.388;2023-05-03T22:52:10;102354.97;;;17.97;35.66
21547;BME280;41275;51.912;4.388;2023-05-03T22:57:32;102357.84;;;17.95;36.00
21547;BME280;41275;51.912;4.388;2023-05-03T23:02:53;102350.44;;;17.85;35.84
21547;BME280;41275;51.912;4.388;2023-05-03T23:08:15;102342.41;;;17.85;35.98
21547;BME280;41275;51.912;4.388;2023-05-03T23:13:36;102343.34;;;17.79;36.19
21547;BME280;41275;51.912;4.388;2023-05-03T23:18:58;102322.44;;;17.64;36.27
21547;BME280;41275;51.912;4.388;2023-05-03T23:24:19;102332.09;;;17.65;36.71
21547;BME280;41275;51.912;4.388;2023-05-03T23:29:40;102322.31;;;17.59;36.62
21547;BME280;41275;51.912;4.388;2023-05-03T23:35:01;102325.34;;;17.51;36.68
21547;BME280;41275;51.912;4.388;2023-05-03T23:40:23;102327.94;;;17.46;36.67
21547;BME280;41275;51.912;4.388;2023-05-03T23:45:44;102320.03;;;17.39;37.14
21547;BME280;41275;51.912;4.388;2023-05-03T23:51:05;102314.94;;;17.38;37.11
21547;BME280;41275;51.912;4.388;2023-05-03T23:56:26;102304.69;;;17.35;37.32
